Time;durP1;ratioP1;P1;durP2;ratioP2;P2;SDS_P1;SDS_P2;PMS_P1;PMS_P2;Temp;Humidity;BMP_temperature;BMP_pressure;BME280_temperature;BME280_humidity;BME280_pressure;Samples;Min_cycle;Max_cycle;Signal;HPM_P1;HPM_P2
2021/01/21 00:00:42;;;;;;;120.10;27.47;;;-1.10;99.90;;;;;;5009354;28;20431;-59
2021/01/21 00:03:07;;;;;;;54.93;23.80;;;-1.10;99.90;;;;;;5004742;28;20546;-61
2021/01/21 00:05:34;;;;;;;67.20;26.10;;;-1.20;99.90;;;;;;5006387;28;20193;-61
2021/01/21 00:07:59;;;;;;;51.63;23.20;;;-1.20;99.90;;;;;;5010500;28;20536;-60
2021/01/21 00:10:25;;;;;;;57.43;23.60;;;-1.20;99.90;;;;;;5009031;28;20651;-60
2021/01/21 00:12:51;;;;;;;69.57;24.70;;;-1.20;99.90;;;;;;5010350;28;20650;-60
2021/01/21 00:15:17;;;;;;;82.60;25.87;;;-1.20;99.90;;;;;;5010807;28;20698;-61
2021/01/21 00:17:43;;;;;;;83.40;27.20;;;-1.10;99.90;;;;;;5003401;28;20458;-61
2021/01/21 00:20:11;;;;;;;69.83;25.20;;;-1.20;99.90;;;;;;4997708;28;20424;-60
2021/01/21 00:22:37;;;;;;;72.57;26.10;;;-1.20;99.90;;;;;;5010732;28;20216;-61
2021/01/21 00:25:06;;;;;;;69.57;19.10;;;-1.30;99.90;;;;;;5003089;28;20474;-60
2021/01/21 00:27:32;;;;;;;41.73;17.87;;;-1.30;99.90;;;;;;5007909;28;20232;-60
2021/01/21 00:29:58;;;;;;;53.93;18.27;;;-1.40;99.90;;;;;;5008768;28;20903;-61
2021/01/21 00:32:24;;;;;;;40.13;19.30;;;-1.30;99.90;;;;;;5008576;28;20807;-61
2021/01/21 00:34:50;;;;;;;39.27;19.43;;;-1.30;99.90;;;;;;5005088;28;20217;-61
2021/01/21 00:37:18;;;;;;;37.60;18.50;;;-1.30;99.90;;;;;;5008295;28;20964;-61
2021/01/21 00:39:44;;;;;;;41.17;19.93;;;-1.30;99.90;;;;;;5007361;28;20582;-60
2021/01/21 00:42:09;;;;;;;50.70;21.57;;;-1.20;99.90;;;;;;5007582;28;21233;-60
2021/01/21 00:44:35;;;;;;;39.53;20.97;;;-1.20;99.90;;;;;;5008345;28;20186;-63
2021/01/21 00:47:01;;;;;;;44.37;19.57;;;-1.10;99.90;;;;;;5013455;28;20189;-61
2021/01/21 00:49:27;;;;;;;40.53;19.60;;;-1.10;99.90;;;;;;5004132;28;20914;-60
2021/01/21 00:51:53;;;;;;;44.47;21.03;;;-1.20;99.90;;;;;;5009627;28;20657;-61
2021/01/21 00:54:19;;;;;;;39.13;19.63;;;-1.10;99.90;;;;;;5007007;28;20345;-61
2021/01/21 00:56:45;;;;;;;44.93;20.60;;;-1.10;99.90;;;;;;5011583;28;20512;-60
2021/01/21 00:59:11;;;;;;;42.07;19.90;;;-1.10;99.90;;;;;;5010807;28;20222;-60
2021/01/21 01:01:37;;;;;;;38.83;19.60;;;-1.20;99.90;;;;;;5013566;28;20192;-60
2021/01/21 01:04:05;;;;;;;40.27;20.10;;;-1.10;99.90;;;;;;5009847;28;20483;-60
2021/01/21 01:06:31;;;;;;;36.47;18.93;;;-1.10;99.90;;;;;;5012691;28;20429;-60
2021/01/21 01:08:56;;;;;;;39.17;17.63;;;-1.10;99.90;;;;;;5012142;28;20485;-61
2021/01/21 01:11:22;;;;;;;35.87;17.47;;;-1.20;99.90;;;;;;5012914;28;20175;-59
2021/01/21 01:13:47;;;;;;;36.30;16.63;;;-1.20;99.90;;;;;;5013420;28;20256;-60
2021/01/21 01:16:13;;;;;;;86.20;16.57;;;-1.20;99.90;;;;;;5013344;28;20234;-61
2021/01/21 01:18:39;;;;;;;58.40;16.37;;;-1.20;99.90;;;;;;4997318;28;20263;-60
2021/01/21 01:21:05;;;;;;;95.83;17.17;;;-1.30;99.90;;;;;;4994009;28;20238;-61
2021/01/21 01:23:34;;;;;;;29.60;13.10;;;-1.30;99.90;;;;;;5011048;28;20863;-60
2021/01/21 01:25:59;;;;;;;27.60;13.43;;;-1.40;99.90;;;;;;5004699;28;20583;-60
2021/01/21 01:28:25;;;;;;;22.43;11.93;;;-1.40;99.90;;;;;;5013222;28;21023;-61
2021/01/21 01:30:50;;;;;;;25.13;12.27;;;-1.40;99.90;;;;;;5012653;28;20265;-61
2021/01/21 01:33:16;;;;;;;24.97;11.53;;;-1.40;99.90;;;;;;5013871;28;20209;-60
2021/01/21 01:35:42;;;;;;;23.40;12.60;;;-1.40;99.90;;;;;;4996726;28;20477;-60
2021/01/21 01:38:09;;;;;;;28.50;13.57;;;-1.30;99.90;;;;;;5011506;28;20218;-59
2021/01/21 01:40:34;;;;;;;23.47;12.00;;;-1.30;99.90;;;;;;5011285;28;20613;-61
2021/01/21 01:43:00;;;;;;;27.67;13.77;;;-1.30;99.90;;;;;;5010260;28;20981;-61
2021/01/21 01:45:26;;;;;;;27.50;12.87;;;-1.30;99.90;;;;;;5007215;28;20563;-59
2021/01/21 01:47:52;;;;;;;22.53;12.27;;;-1.30;99.90;;;;;;4993730;28;20492;-60
2021/01/21 01:50:18;;;;;;;24.10;13.20;;;-1.30;99.90;;;;;;4994240;28;20669;-60
2021/01/21 01:52:44;;;;;;;23.40;12.43;;;-1.30;99.90;;;;;;5007898;28;20187;-60
2021/01/21 01:55:16;;;;;;;27.50;13.37;;;-1.40;99.90;;;;;;5007417;28;20674;-60
2021/01/21 01:57:44;;;;;;;28.37;13.90;;;-1.40;99.90;;;;;;5011299;28;20519;-60
2021/01/21 02:00:10;;;;;;;23.30;12.10;;;-1.40;99.90;;;;;;5011856;28;20487;-59
2021/01/21 02:02:36;;;;;;;23.97;12.23;;;-1.30;99.90;;;;;;5011095;28;20447;-61
2021/01/21 02:05:03;;;;;;;23.93;11.93;;;-1.30;99.90;;;;;;5004109;28;20426;-60
2021/01/21 02:07:29;;;;;;;24.00;11.70;;;-1.30;99.90;;;;;;5009512;28;20311;-62
2021/01/21 02:09:56;;;;;;;23.93;12.60;;;-1.30;99.90;;;;;;5008963;28;20417;-62
2021/01/21 02:12:48;;;;;;;28.67;13.10;;;-1.20;99.90;;;;;;5009121;28;20417;-60
2021/01/21 02:15:24;;;;;;;28.63;14.23;;;-1.20;99.90;;;;;;4977898;28;20468;-61
2021/01/21 02:18:27;;;;;;;30.77;14.27;;;-1.20;99.90;;;;;;5011936;28;20461;-60
2021/01/21 02:21:10;;;;;;;34.17;13.33;;;-1.20;99.90;;;;;;4952691;28;20521;-59
2021/01/21 02:24:02;;;;;;;28.97;13.63;;;-1.20;99.90;;;;;;5011606;28;20418;-62
2021/01/21 02:26:42;;;;;;;25.73;13.77;;;-1.20;99.90;;;;;;5003565;28;20433;-60
2021/01/21 02:29:24;;;;;;;30.30;11.80;;;-1.20;99.90;;;;;;5012602;28;20388;-59
2021/01/21 02:32:08;;;;;;;32.30;13.70;;;-1.20;99.90;;;;;;5012882;28;20419;-60
2021/01/21 02:34:51;;;;;;;27.90;13.47;;;-1.10;99.90;;;;;;5004462;28;20462;-62
2021/01/21 02:37:27;;;;;;;30.37;13.77;;;-1.10;99.90;;;;;;5010191;28;20467;-60
2021/01/21 02:39:59;;;;;;;31.93;14.00;;;-1.00;99.90;;;;;;5012051;28;20930;-60
2021/01/21 02:42:25;;;;;;;27.77;14.07;;;-0.90;99.90;;;;;;5009580;28;20432;-60
2021/01/21 02:44:51;;;;;;;36.70;15.17;;;-0.90;99.90;;;;;;5010984;28;20521;-60
2021/01/21 02:47:19;;;;;;;44.33;14.67;;;-0.90;99.90;;;;;;5010925;28;20492;-59
2021/01/21 02:49:48;;;;;;;25.77;14.00;;;-0.80;99.90;;;;;;5009778;28;20186;-61
2021/01/21 02:52:32;;;;;;;34.90;16.73;;;-0.80;99.90;;;;;;5011665;28;20524;-61
2021/01/21 02:55:45;;;;;;;32.70;15.70;;;-0.80;99.90;;;;;;5001794;28;20519;-63
2021/01/21 02:58:27;;;;;;;31.40;16.07;;;-0.80;99.90;;;;;;5005093;28;20460;-60
2021/01/21 03:00:53;;;;;;;31.07;15.40;;;-0.80;99.90;;;;;;5011776;28;20538;-61
2021/01/21 03:03:23;;;;;;;29.80;15.30;;;-0.70;99.90;;;;;;5009346;28;20718;-61
2021/01/21 03:05:52;;;;;;;29.30;15.70;;;-0.60;99.90;;;;;;4998710;28;20447;-60
2021/01/21 03:08:18;;;;;;;34.83;16.10;;;-0.60;99.90;;;;;;5009919;28;20556;-61
2021/01/21 03:10:43;;;;;;;36.37;17.10;;;-0.60;99.90;;;;;;5009427;28;20920;-60
2021/01/21 03:13:09;;;;;;;27.20;14.73;;;-0.70;99.90;;;;;;4991927;28;20411;-60
2021/01/21 03:15:37;;;;;;;35.73;16.17;;;-0.70;99.90;;;;;;4992025;28;20225;-61
2021/01/21 03:18:05;;;;;;;31.90;14.10;;;-0.70;99.90;;;;;;5007856;28;20207;-61
2021/01/21 03:20:30;;;;;;;29.50;14.97;;;-0.70;99.90;;;;;;4995593;28;20456;-61
2021/01/21 03:22:56;;;;;;;34.00;14.30;;;-0.70;99.90;;;;;;4996468;28;20894;-60
2021/01/21 03:25:22;;;;;;;30.93;15.50;;;-0.70;99.90;;;;;;4996680;28;20184;-61
2021/01/21 03:27:47;;;;;;;27.83;14.90;;;-0.60;99.90;;;;;;5002465;28;20210;-60
2021/01/21 03:30:13;;;;;;;34.03;16.87;;;-0.60;99.90;;;;;;5009961;28;20181;-61
2021/01/21 03:32:39;;;;;;;30.20;15.70;;;-0.60;99.90;;;;;;5011110;28;20190;-61
2021/01/21 03:35:06;;;;;;;32.73;16.10;;;-0.60;99.90;;;;;;5009273;28;20824;-61
2021/01/21 03:37:31;;;;;;;36.10;17.13;;;-0.60;99.90;;;;;;5010737;28;20445;-61
2021/01/21 03:39:57;;;;;;;28.33;14.63;;;-0.60;99.90;;;;;;5010420;28;20493;-61
2021/01/21 03:42:23;;;;;;;27.37;14.97;;;-0.60;99.90;;;;;;5009635;28;20190;-63
2021/01/21 03:44:48;;;;;;;30.03;13.73;;;-0.60;99.90;;;;;;4997338;28;20224;-60
2021/01/21 03:47:14;;;;;;;27.33;13.70;;;-0.60;99.90;;;;;;4988398;28;20228;-62
2021/01/21 03:49:40;;;;;;;32.90;14.87;;;-0.50;99.90;;;;;;5001040;28;20193;-59
2021/01/21 03:52:05;;;;;;;27.17;14.40;;;-0.50;99.90;;;;;;5008513;28;20190;-60
2021/01/21 03:54:31;;;;;;;26.97;14.00;;;-0.50;99.90;;;;;;4994619;28;20583;-60
2021/01/21 03:56:56;;;;;;;29.30;14.87;;;-0.40;99.90;;;;;;4990460;28;20277;-60
2021/01/21 03:59:22;;;;;;;31.00;14.83;;;-0.40;99.90;;;;;;5005111;28;20178;-59
2021/01/21 04:01:48;;;;;;;27.70;14.63;;;-0.50;99.90;;;;;;5010436;28;20330;-61
2021/01/21 04:04:14;;;;;;;31.57;15.00;;;-0.40;99.90;;;;;;5007694;28;20208;-61
2021/01/21 04:06:40;;;;;;;38.70;14.67;;;-0.40;99.90;;;;;;5003046;28;20221;-60
2021/01/21 04:09:05;;;;;;;30.90;15.17;;;-0.40;99.90;;;;;;5008013;28;20224;-61
2021/01/21 04:11:34;;;;;;;30.00;15.63;;;-0.40;99.90;;;;;;5009742;28;20960;-60
2021/01/21 04:14:00;;;;;;;28.17;14.70;;;-0.40;99.90;;;;;;5007766;28;20465;-61
2021/01/21 04:16:26;;;;;;;29.07;14.00;;;-0.40;99.90;;;;;;5010580;28;20498;-61
2021/01/21 04:18:51;;;;;;;33.43;13.87;;;-0.40;99.90;;;;;;5008101;28;20968;-61
2021/01/21 04:21:17;;;;;;;33.87;15.73;;;-0.40;99.90;;;;;;5010835;28;20184;-60
2021/01/21 04:23:43;;;;;;;30.00;16.13;;;-0.40;99.90;;;;;;5011298;28;20648;-59
2021/01/21 04:26:09;;;;;;;33.43;16.20;;;-0.40;99.90;;;;;;5014794;28;20179;-60
2021/01/21 04:28:34;;;;;;;38.60;15.80;;;-0.40;99.90;;;;;;5008733;28;20468;-60
2021/01/21 04:31:00;;;;;;;32.80;15.33;;;-0.40;99.90;;;;;;5010094;28;20201;-62
2021/01/21 04:33:26;;;;;;;34.67;16.07;;;-0.40;99.90;;;;;;5013589;28;20303;-61
2021/01/21 04:35:52;;;;;;;30.10;14.20;;;-0.40;99.90;;;;;;5011936;28;20417;-60
2021/01/21 04:38:17;;;;;;;30.50;15.50;;;-0.40;99.90;;;;;;5011573;28;20202;-60
2021/01/21 04:40:44;;;;;;;30.27;14.40;;;-0.40;99.90;;;;;;5013999;28;20205;-60
2021/01/21 04:43:10;;;;;;;33.00;15.70;;;-0.30;99.90;;;;;;5009382;28;20186;-60
2021/01/21 04:45:36;;;;;;;30.17;15.17;;;-0.30;99.90;;;;;;5002730;28;20436;-60
2021/01/21 04:48:02;;;;;;;38.40;17.10;;;-0.30;99.90;;;;;;5013322;28;20444;-61
2021/01/21 04:50:29;;;;;;;37.80;16.73;;;-0.30;99.90;;;;;;5010376;28;20180;-62
2021/01/21 04:52:56;;;;;;;31.93;16.77;;;-0.30;99.90;;;;;;5007641;28;20437;-60
2021/01/21 04:55:28;;;;;;;33.83;16.43;;;-0.30;99.90;;;;;;5012829;28;20459;-60
2021/01/21 04:58:10;;;;;;;36.07;16.00;;;-0.30;99.90;;;;;;5004672;28;20551;-60
2021/01/21 05:00:37;;;;;;;35.73;16.13;;;-0.20;99.90;;;;;;5009572;28;20423;-61
2021/01/21 05:03:03;;;;;;;36.27;16.03;;;-0.20;99.90;;;;;;4993244;28;20422;-61
2021/01/21 05:05:29;;;;;;;33.30;16.73;;;-0.20;99.90;;;;;;4982267;28;21018;-61
2021/01/21 05:07:55;;;;;;;36.50;18.10;;;-0.20;99.90;;;;;;4997341;28;20536;-61
2021/01/21 05:10:21;;;;;;;34.50;19.00;;;-0.20;99.90;;;;;;4994809;28;20256;-62
2021/01/21 05:12:47;;;;;;;31.00;16.87;;;-0.20;99.90;;;;;;5009088;28;20431;-61
2021/01/21 05:15:12;;;;;;;34.73;15.70;;;-0.20;99.90;;;;;;4995485;28;20465;-61
2021/01/21 05:17:39;;;;;;;30.27;16.30;;;-0.20;99.90;;;;;;4994344;28;20807;-61
2021/01/21 05:20:06;;;;;;;38.23;16.60;;;-0.20;99.90;;;;;;4994646;28;20581;-61
2021/01/21 05:22:34;;;;;;;37.17;15.90;;;-0.20;99.90;;;;;;5007372;28;20791;-61
2021/01/21 05:25:01;;;;;;;32.23;15.17;;;-0.20;99.90;;;;;;5008473;28;20419;-61
2021/01/21 05:27:27;;;;;;;28.13;13.63;;;-0.20;99.90;;;;;;5012606;28;20435;-60
2021/01/21 05:29:53;;;;;;;26.90;14.67;;;-0.10;99.90;;;;;;5005399;28;20450;-59
2021/01/21 05:32:20;;;;;;;33.80;15.10;;;-0.10;99.90;;;;;;5010368;28;20433;-60
2021/01/21 05:34:46;;;;;;;32.23;15.30;;;-0.10;99.90;;;;;;5013240;28;20256;-61
2021/01/21 05:37:15;;;;;;;32.17;15.07;;;-0.10;99.90;;;;;;5010387;28;20453;-59
2021/01/21 05:39:46;;;;;;;33.67;14.40;;;0.00;99.90;;;;;;5012144;28;20430;-62
2021/01/21 05:42:12;;;;;;;29.03;14.80;;;-0.10;99.90;;;;;;5010087;28;20516;-63
2021/01/21 05:44:39;;;;;;;42.70;20.80;;;0.00;99.90;;;;;;5009240;28;20471;-61
2021/01/21 05:47:06;;;;;;;49.57;22.63;;;0.00;99.90;;;;;;5012395;28;20955;-60
2021/01/21 05:49:32;;;;;;;50.07;22.60;;;0.00;99.90;;;;;;5007415;28;20864;-61
2021/01/21 05:51:59;;;;;;;39.13;18.00;;;0.00;99.90;;;;;;5000474;28;20443;-60
2021/01/21 05:54:27;;;;;;;38.20;16.13;;;0.00;99.90;;;;;;5000807;28;20499;-62
2021/01/21 05:56:58;;;;;;;33.83;16.03;;;0.10;99.90;;;;;;5003417;28;20886;-61
2021/01/21 05:59:25;;;;;;;33.67;15.80;;;0.10;99.90;;;;;;5006233;28;20441;-61
2021/01/21 06:01:52;;;;;;;28.60;15.33;;;0.10;99.90;;;;;;5003547;28;20448;-61
2021/01/21 06:04:19;;;;;;;31.20;15.77;;;0.10;99.90;;;;;;5007219;28;20436;-61
2021/01/21 06:06:45;;;;;;;44.97;20.63;;;0.20;99.90;;;;;;5012663;28;20490;-60
2021/01/21 06:09:15;;;;;;;42.53;20.37;;;0.10;99.90;;;;;;5006450;28;20492;-60
2021/01/21 06:11:43;;;;;;;47.20;22.97;;;0.10;99.90;;;;;;5007461;28;20497;-59
2021/01/21 06:14:11;;;;;;;46.50;21.90;;;0.10;99.90;;;;;;5004895;28;20467;-61
2021/01/21 06:16:38;;;;;;;42.50;18.43;;;0.20;99.90;;;;;;5007814;28;20483;-61
2021/01/21 06:19:04;;;;;;;35.93;17.27;;;0.20;99.90;;;;;;5018436;28;21072;-59
2021/01/21 06:21:35;;;;;;;38.23;17.37;;;0.20;99.90;;;;;;5000850;28;20946;-63
2021/01/21 06:24:03;;;;;;;30.60;16.30;;;0.20;99.90;;;;;;5001230;28;20890;-62
2021/01/21 06:26:40;;;;;;;34.00;15.80;;;0.20;99.90;;;;;;4997192;28;20464;-60
2021/01/21 06:29:11;;;;;;;24.40;14.90;;;0.20;99.90;;;;;;4996664;28;20471;-62
2021/01/21 06:31:39;;;;;;;28.90;13.00;;;0.20;99.90;;;;;;5001637;28;20889;-62
2021/01/21 06:34:10;;;;;;;22.43;11.93;;;0.30;99.90;;;;;;5011442;28;20461;-63
2021/01/21 06:36:39;;;;;;;24.07;11.60;;;0.30;99.90;;;;;;5002253;28;20445;-61
2021/01/21 06:39:07;;;;;;;24.87;12.27;;;0.30;99.90;;;;;;4988579;28;20461;-60
2021/01/21 06:41:36;;;;;;;21.00;11.80;;;0.30;99.90;;;;;;4997425;28;20433;-62
2021/01/21 06:44:02;;;;;;;25.47;11.83;;;0.40;99.90;;;;;;4994569;28;20495;-61
2021/01/21 06:46:29;;;;;;;24.80;12.07;;;0.30;99.90;;;;;;4997415;28;20532;-61
2021/01/21 06:48:57;;;;;;;26.80;12.80;;;0.40;99.90;;;;;;4995803;28;20594;-61
2021/01/21 06:51:23;;;;;;;24.87;13.20;;;0.40;99.90;;;;;;4994138;28;20460;-62
2021/01/21 06:53:53;;;;;;;31.70;14.57;;;0.50;99.90;;;;;;4998481;28;21120;-61
2021/01/21 06:56:18;;;;;;;28.37;12.87;;;0.50;99.90;;;;;;4998101;28;20437;-59
2021/01/21 06:58:53;;;;;;;22.57;12.50;;;0.40;99.90;;;;;;4991884;28;20511;-63
2021/01/21 07:01:31;;;;;;;18.67;11.63;;;0.50;99.90;;;;;;4996325;28;20664;-62
2021/01/21 07:03:57;;;;;;;20.93;12.27;;;0.50;99.90;;;;;;4998731;28;20444;-61
2021/01/21 07:06:23;;;;;;;17.60;10.77;;;0.50;99.90;;;;;;4996649;28;20856;-60
2021/01/21 07:09:09;;;;;;;22.10;12.03;;;0.50;99.90;;;;;;4996945;28;20465;-60
2021/01/21 07:11:34;;;;;;;24.20;12.63;;;0.50;99.90;;;;;;4995069;28;20984;-60
2021/01/21 07:14:04;;;;;;;22.60;12.10;;;0.60;99.90;;;;;;5002125;28;20982;-61
2021/01/21 07:16:33;;;;;;;22.60;11.37;;;0.60;99.90;;;;;;5000073;28;20434;-61
2021/01/21 07:19:02;;;;;;;16.57;9.97;;;0.50;99.90;;;;;;5003996;28;20982;-60
2021/01/21 07:21:30;;;;;;;15.13;8.60;;;0.60;99.90;;;;;;5001974;28;20420;-60
2021/01/21 07:23:58;;;;;;;17.53;10.30;;;0.60;99.90;;;;;;4994809;28;20460;-61
2021/01/21 07:26:32;;;;;;;18.00;9.57;;;0.60;99.90;;;;;;4989459;28;20437;-60
2021/01/21 07:29:11;;;;;;;16.73;9.80;;;0.70;99.90;;;;;;4991041;28;20448;-62
2021/01/21 07:31:52;;;;;;;21.27;11.90;;;0.70;99.90;;;;;;4996101;28;20515;-61
2021/01/21 07:34:29;;;;;;;23.43;12.40;;;0.70;99.90;;;;;;4993062;28;20511;-62
2021/01/21 07:37:17;;;;;;;20.83;12.07;;;0.80;99.90;;;;;;4991572;28;20447;-61
2021/01/21 07:39:56;;;;;;;25.03;13.00;;;0.80;99.90;;;;;;4991424;28;20442;-60
2021/01/21 07:42:43;;;;;;;24.63;13.27;;;0.80;99.90;;;;;;4998781;28;20939;-61
2021/01/21 07:45:18;;;;;;;20.33;10.93;;;0.80;99.90;;;;;;4991912;28;20441;-61
2021/01/21 07:47:50;;;;;;;22.20;11.97;;;0.80;99.90;;;;;;4993054;28;20472;-60
2021/01/21 07:50:19;;;;;;;22.03;12.27;;;0.90;99.90;;;;;;4992785;28;20451;-60
2021/01/21 07:52:46;;;;;;;22.30;11.70;;;0.90;99.90;;;;;;4996172;28;20448;-61
2021/01/21 07:55:15;;;;;;;30.67;10.50;;;0.90;99.90;;;;;;4987277;28;20837;-60
2021/01/21 07:58:17;;;;;;;19.77;11.90;;;1.00;99.90;;;;;;4994777;28;20452;-61
2021/01/21 08:00:44;;;;;;;28.00;14.47;;;1.00;99.90;;;;;;4992719;28;20488;-61
2021/01/21 08:03:10;;;;;;;27.70;14.50;;;1.00;99.90;;;;;;4996294;28;20464;-61
2021/01/21 08:05:36;;;;;;;27.17;15.67;;;1.10;99.90;;;;;;4991446;28;20461;-59
2021/01/21 08:08:05;;;;;;;27.47;15.60;;;1.10;99.90;;;;;;4991345;28;20600;-60
2021/01/21 08:10:33;;;;;;;27.10;14.57;;;1.20;99.90;;;;;;4996537;28;20476;-62
2021/01/21 08:13:02;;;;;;;32.83;17.10;;;1.30;99.90;;;;;;4994753;28;20429;-61
2021/01/21 08:15:29;;;;;;;30.83;15.50;;;1.30;99.90;;;;;;4994948;28;20473;-61
2021/01/21 08:17:57;;;;;;;31.13;15.20;;;1.30;99.90;;;;;;4999166;28;20459;-63
2021/01/21 08:20:33;;;;;;;16.80;10.23;;;1.40;99.90;;;;;;4994261;28;20523;-60
2021/01/21 08:23:10;;;;;;;20.63;11.00;;;1.30;99.90;;;;;;4990416;28;20436;-62
2021/01/21 08:25:47;;;;;;;23.23;12.17;;;1.40;99.90;;;;;;4995129;28;20450;-61
2021/01/21 08:28:28;;;;;;;27.17;12.30;;;1.40;99.90;;;;;;4993538;28;20493;-61
2021/01/21 08:30:54;;;;;;;26.00;12.83;;;1.40;99.90;;;;;;4994667;28;21249;-61
2021/01/21 08:33:26;;;;;;;21.60;12.10;;;1.40;99.90;;;;;;4972259;28;20456;-60
2021/01/21 08:36:02;;;;;;;24.47;13.13;;;1.50;99.90;;;;;;4995268;28;20579;-58
2021/01/21 08:38:32;;;;;;;19.03;12.50;;;1.50;99.90;;;;;;4997361;28;20460;-62
2021/01/21 08:40:58;;;;;;;26.77;13.70;;;1.60;99.90;;;;;;4995655;28;20438;-61
2021/01/21 08:43:25;;;;;;;29.43;14.10;;;1.60;99.90;;;;;;4995225;28;20520;-60
2021/01/21 08:45:52;;;;;;;21.80;11.33;;;1.60;99.90;;;;;;4994168;28;20452;-59
2021/01/21 08:48:29;;;;;;;26.77;14.50;;;1.70;99.90;;;;;;4993520;28;20474;-62
2021/01/21 08:50:56;;;;;;;30.10;15.33;;;1.70;99.90;;;;;;5002487;28;21119;-63
2021/01/21 08:53:26;;;;;;;30.90;15.13;;;1.80;99.90;;;;;;4994956;28;20438;-61
2021/01/21 08:55:56;;;;;;;22.00;12.13;;;1.90;99.90;;;;;;4996366;28;20426;-61
2021/01/21 08:58:31;;;;;;;21.30;11.83;;;2.00;99.90;;;;;;4989067;28;20521;-62
2021/01/21 09:01:01;;;;;;;22.27;12.00;;;2.10;99.90;;;;;;4996764;28;20432;-62
2021/01/21 09:03:52;;;;;;;21.77;11.50;;;2.10;99.90;;;;;;4993942;28;20429;-61
2021/01/21 09:06:20;;;;;;;27.33;12.07;;;2.20;99.90;;;;;;4998536;28;20511;-62
2021/01/21 09:08:56;;;;;;;22.23;12.63;;;2.20;99.90;;;;;;4997538;28;21254;-60
2021/01/21 09:11:34;;;;;;;27.47;14.20;;;2.30;99.90;;;;;;4997036;28;20451;-62
2021/01/21 09:14:07;;;;;;;24.93;13.00;;;2.40;99.90;;;;;;4996911;28;20496;-60
2021/01/21 09:16:42;;;;;;;25.73;13.13;;;2.50;99.90;;;;;;5006317;28;20947;-61
2021/01/21 09:19:09;;;;;;;21.73;12.07;;;2.50;99.90;;;;;;5000876;28;20566;-59
2021/01/21 09:21:37;;;;;;;22.67;12.27;;;2.50;99.90;;;;;;5000659;28;20437;-61
2021/01/21 09:24:07;;;;;;;19.63;9.53;;;2.60;99.90;;;;;;5000919;28;20655;-60
2021/01/21 09:26:33;;;;;;;18.80;9.50;;;2.60;99.90;;;;;;4997574;28;20435;-60
2021/01/21 09:28:59;;;;;;;14.37;8.10;;;2.60;99.90;;;;;;5004800;28;20449;-60
2021/01/21 09:31:29;;;;;;;15.63;7.63;;;2.60;99.90;;;;;;5003367;28;20297;-61
2021/01/21 09:33:55;;;;;;;17.00;7.90;;;2.70;99.90;;;;;;5002887;28;20605;-61
2021/01/21 09:36:29;;;;;;;16.40;9.33;;;2.70;99.90;;;;;;4992461;28;20547;-60
2021/01/21 09:38:56;;;;;;;15.33;10.47;;;2.80;99.90;;;;;;5003957;28;20279;-61
2021/01/21 09:41:22;;;;;;;16.67;7.97;;;2.90;99.90;;;;;;5001296;28;21327;-62
2021/01/21 09:43:48;;;;;;;16.03;7.50;;;3.00;99.90;;;;;;4996648;28;20449;-60
2021/01/21 09:46:13;;;;;;;17.47;9.77;;;3.10;99.90;;;;;;4999580;28;20534;-61
2021/01/21 09:48:40;;;;;;;15.60;7.87;;;3.20;99.90;;;;;;4999127;28;20289;-60
2021/01/21 09:51:06;;;;;;;14.73;8.60;;;3.40;99.90;;;;;;5003001;28;20718;-60
2021/01/21 09:53:32;;;;;;;15.23;9.07;;;3.40;99.90;;;;;;4994984;28;20447;-61
2021/01/21 09:55:58;;;;;;;13.90;7.63;;;3.50;99.90;;;;;;4995794;28;20454;-60
2021/01/21 09:58:27;;;;;;;13.30;8.37;;;3.60;99.90;;;;;;4999739;28;20227;-62
2021/01/21 10:00:52;;;;;;;16.53;9.70;;;3.60;99.90;;;;;;4999405;28;20188;-61
2021/01/21 10:03:19;;;;;;;14.80;8.90;;;3.70;99.90;;;;;;5000209;28;21206;-62
2021/01/21 10:05:48;;;;;;;17.07;9.13;;;3.70;99.90;;;;;;4994291;28;20519;-62
2021/01/21 10:08:17;;;;;;;18.30;9.90;;;3.80;99.90;;;;;;4998401;28;20506;-63
2021/01/21 10:10:43;;;;;;;16.53;7.67;;;3.90;99.90;;;;;;5003205;28;20513;-61
2021/01/21 10:13:09;;;;;;;10.70;5.47;;;4.00;99.90;;;;;;5001290;28;20438;-61
2021/01/21 10:15:34;;;;;;;10.43;5.50;;;4.00;99.90;;;;;;4998363;28;20466;-62
2021/01/21 10:18:00;;;;;;;10.30;5.90;;;4.00;99.90;;;;;;5000694;28;20212;-61
2021/01/21 10:20:26;;;;;;;11.03;5.70;;;4.10;99.90;;;;;;5001879;28;20279;-62
2021/01/21 10:22:52;;;;;;;8.60;5.57;;;4.20;99.90;;;;;;4997635;28;21025;-60
2021/01/21 10:25:18;;;;;;;10.60;5.37;;;4.40;99.90;;;;;;4997804;28;20189;-65
2021/01/21 10:27:43;;;;;;;8.00;5.33;;;4.50;99.90;;;;;;4994454;28;20211;-61
2021/01/21 10:30:30;;;;;;;11.23;5.03;;;4.50;99.90;;;;;;4996804;28;20206;-59
2021/01/21 10:32:55;;;;;;;6.50;4.30;;;4.50;99.90;;;;;;5001386;28;20519;-60
2021/01/21 10:35:21;;;;;;;6.93;4.60;;;4.40;99.90;;;;;;4997606;28;20609;-59
2021/01/21 10:37:47;;;;;;;7.53;4.50;;;4.40;99.90;;;;;;5000944;28;20281;-60
2021/01/21 10:40:13;;;;;;;9.13;5.13;;;4.40;99.90;;;;;;5005585;28;20189;-59
2021/01/21 10:42:39;;;;;;;9.47;3.80;;;4.40;99.90;;;;;;5000269;28;20204;-60
2021/01/21 10:45:05;;;;;;;6.63;4.30;;;4.50;99.90;;;;;;4996454;28;20453;-64
2021/01/21 10:47:32;;;;;;;10.40;4.80;;;4.70;99.90;;;;;;4999446;28;20227;-59
2021/01/21 10:49:57;;;;;;;8.87;5.60;;;4.90;99.90;;;;;;5003776;28;20499;-61
2021/01/21 10:52:23;;;;;;;8.13;5.03;;;5.20;99.90;;;;;;4981196;28;20461;-62
2021/01/21 10:54:49;;;;;;;7.43;4.40;;;5.40;99.90;;;;;;5000655;28;20211;-61
2021/01/21 10:57:16;;;;;;;7.77;4.57;;;5.60;99.90;;;;;;4997498;28;20219;-59
2021/01/21 10:59:42;;;;;;;6.00;4.50;;;5.70;99.90;;;;;;4993074;28;21070;-63
2021/01/21 11:02:08;;;;;;;6.70;4.23;;;5.80;99.90;;;;;;4993998;28;20441;-59
2021/01/21 11:04:33;;;;;;;6.77;4.03;;;5.80;99.90;;;;;;4992569;28;20482;-61
2021/01/21 11:06:59;;;;;;;5.50;3.20;;;5.80;99.40;;;;;;4996820;28;20195;-61
2021/01/21 11:09:58;;;;;;;6.77;4.13;;;5.80;99.40;;;;;;5001505;28;20291;-61
2021/01/21 11:12:17;;;;;;;8.90;4.17;;;5.90;99.30;;;;;;4992839;28;20295;-61
2021/01/21 11:14:49;;;;;;;6.33;3.40;;;6.10;99.20;;;;;;4996878;28;20471;-62
2021/01/21 11:17:15;;;;;;;4.80;3.50;;;6.30;99.20;;;;;;4996001;28;20460;-60
2021/01/21 11:19:40;;;;;;;6.80;3.40;;;6.50;98.70;;;;;;4981458;28;20977;-62
2021/01/21 11:22:06;;;;;;;5.00;3.60;;;6.60;98.30;;;;;;5000917;28;20451;-60
2021/01/21 11:24:34;;;;;;;4.10;3.30;;;6.70;97.80;;;;;;4998245;28;20200;-60
2021/01/21 11:27:00;;;;;;;5.23;3.00;;;6.70;97.80;;;;;;4996214;28;20197;-60
2021/01/21 11:29:25;;;;;;;8.80;3.13;;;6.70;97.10;;;;;;4996142;28;20957;-61
2021/01/21 11:31:53;;;;;;;5.77;3.60;;;6.60;97.30;;;;;;4995630;28;20561;-58
2021/01/21 11:34:19;;;;;;;7.93;4.13;;;6.60;97.30;;;;;;4997332;28;20468;-61
2021/01/21 11:36:45;;;;;;;6.30;3.93;;;6.70;97.60;;;;;;5000150;28;20475;-61
2021/01/21 11:39:11;;;;;;;8.47;3.87;;;6.80;97.20;;;;;;4999060;28;20532;-60
2021/01/21 11:41:37;;;;;;;5.60;3.30;;;6.90;97.40;;;;;;4992560;28;20682;-60
2021/01/21 11:44:03;;;;;;;10.70;6.53;;;7.10;97.00;;;;;;4996361;28;20196;-61
2021/01/21 11:46:31;;;;;;;7.27;4.20;;;7.40;96.40;;;;;;4984913;28;20232;-61
2021/01/21 11:48:56;;;;;;;5.27;2.90;;;7.80;97.10;;;;;;4999118;28;21007;-61
2021/01/21 11:51:22;;;;;;;4.83;3.07;;;8.10;95.80;;;;;;4998976;28;20440;-60
2021/01/21 11:53:51;;;;;;;4.50;2.30;;;8.10;94.60;;;;;;4998619;28;21127;-61
2021/01/21 11:56:16;;;;;;;3.80;2.03;;;8.00;94.80;;;;;;4996747;28;20269;-60
2021/01/21 11:58:43;;;;;;;3.50;2.30;;;8.00;95.30;;;;;;4994443;28;20451;-61
2021/01/21 12:01:11;;;;;;;2.37;1.83;;;8.20;95.80;;;;;;4997608;28;20218;-61
2021/01/21 12:03:37;;;;;;;2.70;1.90;;;8.40;95.30;;;;;;4992024;28;20440;-61
2021/01/21 12:06:03;;;;;;;4.70;1.70;;;8.70;94.60;;;;;;4998273;28;20451;-61
2021/01/21 12:08:28;;;;;;;2.83;2.53;;;9.00;93.60;;;;;;4994637;28;20247;-62
2021/01/21 12:10:55;;;;;;;3.50;1.83;;;9.30;92.70;;;;;;4994193;28;20443;-61
2021/01/21 12:13:20;;;;;;;2.50;1.60;;;9.30;91.50;;;;;;4996394;28;20192;-61
2021/01/21 12:15:46;;;;;;;2.03;1.67;;;9.20;91.00;;;;;;4992915;28;20467;-61
2021/01/21 12:18:12;;;;;;;1.77;1.50;;;9.10;90.70;;;;;;4994742;28;20224;-61
2021/01/21 12:20:38;;;;;;;3.20;2.60;;;9.10;90.80;;;;;;4997948;28;20475;-61
2021/01/21 12:23:04;;;;;;;2.23;1.97;;;9.10;90.10;;;;;;4995173;28;20447;-61
2021/01/21 12:25:30;;;;;;;3.23;2.27;;;9.10;89.90;;;;;;4993614;28;20928;-61
2021/01/21 12:27:56;;;;;;;2.87;2.30;;;8.90;90.50;;;;;;5002401;28;20466;-61
2021/01/21 12:30:22;;;;;;;2.73;2.53;;;8.70;91.20;;;;;;4992539;28;20432;-61
2021/01/21 12:32:48;;;;;;;3.60;2.53;;;8.50;92.50;;;;;;4995391;28;20467;-61
2021/01/21 12:35:14;;;;;;;3.43;2.57;;;8.20;93.20;;;;;;4995363;28;20213;-62
2021/01/21 12:37:40;;;;;;;3.47;2.40;;;8.00;93.60;;;;;;4993850;28;20668;-60
2021/01/21 12:40:06;;;;;;;2.60;2.40;;;7.90;94.10;;;;;;4994442;28;20450;-61
2021/01/21 12:42:32;;;;;;;4.20;2.87;;;7.70;94.60;;;;;;4995964;28;20554;-61